Vendor, AR (72683)

6:32 AM CDT on August 23, 2014 (GMT -0500)
Parthenon AR | Change Station
CLOSE
Current Station
Personal Weather Station
Location: Parthenon, AR
Elevation: 1119 ft
Nearby Weather Stations
Active Advisory: Heat Advisory

Elev 1119 ft 35.95 °N, 93.28 °W | Updated 7 minutes ago

Clear
Clear
69.9 °F
Feels Like 69.9 °F
N
0.0
Wind Variable Wind from South
Gusts 0.0 mph

Today
High -- | Low -- °F
--% Chance of Precip.
Yesterday
High -- | Low -- °F
Precip. -- in
6:37 AM 7:52 PM
Waning Crescent, 4% visible
Pressure 29.97 in
Visibility 10.0 miles
Clouds Clear
Dew Point 65 °F
Humidity 83%
Rainfall 0.00 in
Snow Depth Not available.
UV 0 out of 12
Pollen 9.90 out of 12
Air Quality Not available.
Flu Activity Not available.
METAR KHRO 230953Z AUTO 10003KT 10SM CLR 23/22 A3002 RMK AO2 SLP147 T02330222

More Conditions Fewer Conditions

Pressure 29.97 in
Visibility 10.0 miles
Clouds Clear
Dew Point 65 °F
Humidity 83%
Rainfall 0.00 in
Snow Depth Not available.
UV 0 out of 12
Pollen 9.90 out of 12
Air Quality Not available.
Flu Activity Not available.
METAR KHRO 230953Z AUTO 10003KT 10SM CLR 23/22 A3002 RMK AO2 SLP147 T02330222

More Conditions Fewer Conditions

10-Day Weather Forecast

Almanac

Astronomy

Aug. 23, 2014 Rise Set
Actual Time 6:37 AM CDT 7:52 PM CDT
Civil Twilight 6:10 AM CDT 8:18 PM CDT
Nautical Twilight 5:38 AM CDT 8:50 PM CDT
Astronomical Twilight 5:05 AM CDT 9:23 PM CDT
Moon 4:55 AM CDT 6:36 PM CDT
Length of Visible Light 14h 08m
Length of Day
13h 14m
Tomorrow will be 2m 6s shorter.
Waning Crescent, 4% of the Moon is Illuminated
Today
Waning Crescent
Aug 25
New
Sep 2
First Quarter
Sep 8
Full
Sep 15
Last Quarter

Today's Extremes

State Highs State Lows

Community

WunderPhotos

Upload Photos

1,746,418 photos uploaded!

WunderBlogs® & News

By Dr. Jeff Masters
Director of Meteorology, Weather Underground
By Kari Strenfel
Meteorologist, Weather Underground
By Christopher C. Burt
Weather Historian, Weather Underground
August 23, 2014
August 23, 2014
August 23, 2014

Nearby

Snow Depth

Station Depth Elevation
No new snow has been reported.

Earthquake Activity

City Distance Mag. Time & Date
No recent earthquake activity has been reported nearby.
Minimum magnitude displayed is 2.5.

Coastal Water Temperatures

Place Temperature
No Stations Reporting

Nearby Weather Stations